sensor_id;sensor_type;location;lat;lon;timestamp;pressure;altitude;pressure_sealevel;temperature;humidity
21838;BME280;11081;45.946;6.140;2023-02-10T00:01:33;96820.63;;;1.69;66.14
21838;BME280;11081;45.946;6.140;2023-02-10T00:04:01;96823.88;;;1.71;66.09
21838;BME280;11081;45.946;6.140;2023-02-10T00:06:31;96827.66;;;1.67;65.52
21838;BME280;11081;45.946;6.140;2023-02-10T00:09:01;96829.50;;;1.65;66.07
21838;BME280;11081;45.946;6.140;2023-02-10T00:11:30;96833.28;;;1.61;65.78
21838;BME280;11081;45.946;6.140;2023-02-10T00:14:17;96834.84;;;1.52;65.46
21838;BME280;11081;45.946;6.140;2023-02-10T00:16:48;96839.66;;;1.46;66.10
21838;BME280;11081;45.946;6.140;2023-02-10T00:19:17;96841.50;;;1.44;66.06
21838;BME280;11081;45.946;6.140;2023-02-10T00:21:45;96844.81;;;1.46;65.70
21838;BME280;11081;45.946;6.140;2023-02-10T00:24:15;96844.81;;;1.46;66.08
21838;BME280;11081;45.946;6.140;2023-02-10T00:26:43;96845.03;;;1.43;66.19
21838;BME280;11081;45.946;6.140;2023-02-10T00:29:11;96847.97;;;1.38;65.91
21838;BME280;11081;45.946;6.140;2023-02-10T00:31:40;96848.22;;;1.35;66.53
21838;BME280;11081;45.946;6.140;2023-02-10T00:34:12;96849.28;;;1.33;66.20
21838;BME280;11081;45.946;6.140;2023-02-10T00:36:41;96856.28;;;1.31;66.59
21838;BME280;11081;45.946;6.140;2023-02-10T00:39:13;96852.91;;;1.30;66.26
21838;BME280;11081;45.946;6.140;2023-02-10T00:41:42;96858.41;;;1.26;67.05
21838;BME280;11081;45.946;6.140;2023-02-10T00:44:10;96857.69;;;1.23;66.53
21838;BME280;11081;45.946;6.140;2023-02-10T00:46:38;96858.41;;;1.26;66.76
21838;BME280;11081;45.946;6.140;2023-02-10T00:49:07;96860.44;;;1.11;66.70
21838;BME280;11081;45.946;6.140;2023-02-10T00:51:36;96854.47;;;1.10;67.14
21838;BME280;11081;45.946;6.140;2023-02-10T00:54:04;96848.84;;;1.16;67.32
21838;BME280;11081;45.946;6.140;2023-02-10T00:56:32;96848.34;;;1.22;66.80
21838;BME280;11081;45.946;6.140;2023-02-10T00:59:01;96844.84;;;1.23;67.28
21838;BME280;11081;45.946;6.140;2023-02-10T01:01:29;96850.78;;;1.24;67.38
21838;BME280;11081;45.946;6.140;2023-02-10T01:03:59;96858.41;;;1.26;66.81
21838;BME280;11081;45.946;6.140;2023-02-10T01:06:27;96859.81;;;1.30;66.88
21838;BME280;11081;45.946;6.140;2023-02-10T01:08:56;96862.13;;;1.33;66.74
21838;BME280;11081;45.946;6.140;2023-02-10T01:11:24;96864.69;;;1.33;66.56
21838;BME280;11081;45.946;6.140;2023-02-10T01:13:52;96868.22;;;1.32;66.62
21838;BME280;11081;45.946;6.140;2023-02-10T01:16:22;96861.19;;;1.34;67.00
21838;BME280;11081;45.946;6.140;2023-02-10T01:18:50;96860.63;;;1.30;67.37
21838;BME280;11081;45.946;6.140;2023-02-10T01:21:19;96868.47;;;1.29;67.13
21838;BME280;11081;45.946;6.140;2023-02-10T01:23:48;96866.81;;;1.28;67.43
21838;BME280;11081;45.946;6.140;2023-02-10T01:26:16;96863.31;;;1.29;66.54
21838;BME280;11081;45.946;6.140;2023-02-10T01:28:44;96872.91;;;1.27;67.29
21838;BME280;11081;45.946;6.140;2023-02-10T01:31:14;96873.84;;;1.26;66.88
21838;BME280;11081;45.946;6.140;2023-02-10T01:33:45;96873.25;;;1.22;67.42
21838;BME280;11081;45.946;6.140;2023-02-10T01:36:15;96873.84;;;1.26;66.66
21838;BME280;11081;45.946;6.140;2023-02-10T01:38:43;96868.72;;;1.26;67.23
21838;BME280;11081;45.946;6.140;2023-02-10T01:41:13;96868.91;;;1.22;67.21
21838;BME280;11081;45.946;6.140;2023-02-10T01:43:59;96866.38;;;1.11;67.54
21838;BME280;11081;45.946;6.140;2023-02-10T01:46:29;96856.09;;;1.11;66.66
21838;BME280;11081;45.946;6.140;2023-02-10T01:49:05;96858.66;;;1.11;66.95
21838;BME280;11081;45.946;6.140;2023-02-10T01:51:38;96861.25;;;1.11;66.46
21838;BME280;11081;45.946;6.140;2023-02-10T01:54:14;96860.09;;;1.04;66.62
21838;BME280;11081;45.946;6.140;2023-02-10T01:56:44;96854.94;;;1.04;66.82
21838;BME280;11081;45.946;6.140;2023-02-10T01:59:13;96855.16;;;1.01;67.31
21838;BME280;11081;45.946;6.140;2023-02-10T02:01:42;96855.84;;;1.03;66.68
21838;BME280;11081;45.946;6.140;2023-02-10T02:04:11;96854.72;;;1.07;66.38
21838;BME280;11081;45.946;6.140;2023-02-10T02:06:40;96849.31;;;1.10;67.43
21838;BME280;11081;45.946;6.140;2023-02-10T02:09:09;96851.19;;;1.08;66.96
21838;BME280;11081;45.946;6.140;2023-02-10T02:11:43;96850.25;;;0.98;67.31
21838;BME280;11081;45.946;6.140;2023-02-10T02:14:26;96843.50;;;0.97;67.65
21838;BME280;11081;45.946;6.140;2023-02-10T02:17:03;96852.13;;;0.96;67.10
21838;BME280;11081;45.946;6.140;2023-02-10T02:23:15;96855.41;;;0.98;66.37
21838;BME280;11081;45.946;6.140;2023-02-10T02:25:57;96860.31;;;1.01;66.62
21838;BME280;11081;45.946;6.140;2023-02-10T02:28:34;96860.91;;;1.05;nan
21838;BME280;11081;45.946;6.140;2023-02-10T02:31:27;96866.88;;;1.05;66.38
21838;BME280;11081;45.946;6.140;2023-02-10T02:34:00;96859.28;;;0.93;66.43
21838;BME280;11081;45.946;6.140;2023-02-10T02:36:30;96860.78;;;0.95;67.18
21838;BME280;11081;45.946;6.140;2023-02-10T02:39:03;96861.03;;;0.92;67.22
21838;BME280;11081;45.946;6.140;2023-02-10T02:41:33;96857.53;;;0.93;67.04
21838;BME280;11081;45.946;6.140;2023-02-10T02:44:05;96849.34;;;0.88;67.47
21838;BME280;11081;45.946;6.140;2023-02-10T02:46:44;96854.72;;;0.85;67.28
21838;BME280;11081;45.946;6.140;2023-02-10T02:49:20;96848.78;;;0.84;66.65
21838;BME280;11081;45.946;6.140;2023-02-10T02:52:00;96843.63;;;0.84;67.04
21838;BME280;11081;45.946;6.140;2023-02-10T02:54:34;96847.97;;;0.84;66.56
21838;BME280;11081;45.946;6.140;2023-02-10T02:57:10;96847.59;;;0.88;66.94
21838;BME280;11081;45.946;6.140;2023-02-10T02:59:46;96855.88;;;0.92;66.46
21838;BME280;11081;45.946;6.140;2023-02-10T03:02:19;96854.13;;;0.93;66.81
21838;BME280;11081;45.946;6.140;2023-02-10T03:04:49;96852.84;;;0.98;65.99
21838;BME280;11081;45.946;6.140;2023-02-10T03:07:17;96862.66;;;0.93;66.54
21838;BME280;11081;45.946;6.140;2023-02-10T03:09:45;96861.25;;;0.89;66.67
21838;BME280;11081;45.946;6.140;2023-02-10T03:12:13;96859.88;;;0.85;66.36
21838;BME280;11081;45.946;6.140;2023-02-10T03:14:41;96865.00;;;0.85;67.05
21838;BME280;11081;45.946;6.140;2023-02-10T03:17:09;96866.66;;;0.86;67.22
21838;BME280;11081;45.946;6.140;2023-02-10T03:19:38;96870.38;;;0.82;66.98
21838;BME280;11081;45.946;6.140;2023-02-10T03:22:06;96867.34;;;0.77;67.22
21838;BME280;11081;45.946;6.140;2023-02-10T03:24:34;96862.19;;;0.77;67.63
21838;BME280;11081;45.946;6.140;2023-02-10T03:27:02;96863.47;;;0.82;66.97
21838;BME280;11081;45.946;6.140;2023-02-10T03:29:32;96853.31;;;0.81;67.41
21838;BME280;11081;45.946;6.140;2023-02-10T03:32:00;96855.44;;;0.76;67.42
21838;BME280;11081;45.946;6.140;2023-02-10T03:34:30;96852.16;;;0.74;67.35
21838;BME280;11081;45.946;6.140;2023-02-10T03:37:00;96852.16;;;0.74;66.48
21838;BME280;11081;45.946;6.140;2023-02-10T03:39:28;96851.91;;;0.77;66.54
21838;BME280;11081;45.946;6.140;2023-02-10T03:41:56;96849.72;;;0.72;67.36
21838;BME280;11081;45.946;6.140;2023-02-10T03:44:24;96850.28;;;0.76;66.96
21838;BME280;11081;45.946;6.140;2023-02-10T03:46:52;96840.50;;;0.70;66.75
21838;BME280;11081;45.946;6.140;2023-02-10T03:49:20;96849.13;;;0.69;66.94
21838;BME280;11081;45.946;6.140;2023-02-10T03:51:48;96852.63;;;0.68;67.37
21838;BME280;11081;45.946;6.140;2023-02-10T03:54:17;96852.63;;;0.68;67.84
21838;BME280;11081;45.946;6.140;2023-02-10T03:56:45;96851.00;;;0.67;67.62
21838;BME280;11081;45.946;6.140;2023-02-10T03:59:13;96845.88;;;0.67;67.67
21838;BME280;11081;45.946;6.140;2023-02-10T04:01:41;96846.81;;;0.66;67.79
21838;BME280;11081;45.946;6.140;2023-02-10T04:04:09;96840.50;;;0.70;68.13
21838;BME280;11081;45.946;6.140;2023-02-10T04:06:37;96843.06;;;0.70;68.45
21838;BME280;11081;45.946;6.140;2023-02-10T04:09:05;96849.38;;;0.66;68.24
21838;BME280;11081;45.946;6.140;2023-02-10T04:11:35;96839.34;;;0.63;68.54
21838;BME280;11081;45.946;6.140;2023-02-10T04:14:03;96847.50;;;0.68;68.22
21838;BME280;11081;45.946;6.140;2023-02-10T04:16:31;96847.50;;;0.68;68.02
21838;BME280;11081;45.946;6.140;2023-02-10T04:19:00;96855.91;;;0.70;68.34
21838;BME280;11081;45.946;6.140;2023-02-10T04:21:28;96856.59;;;0.60;68.63
21838;BME280;11081;45.946;6.140;2023-02-10T04:23:56;96858.00;;;0.65;68.29
21838;BME280;11081;45.946;6.140;2023-02-10T04:26:24;96865.34;;;0.58;68.45
21838;BME280;11081;45.946;6.140;2023-02-10T04:28:53;96855.19;;;0.56;68.55
21838;BME280;11081;45.946;6.140;2023-02-10T04:31:21;96856.81;;;0.57;68.62
21838;BME280;11081;45.946;6.140;2023-02-10T04:33:50;96854.94;;;0.59;68.63
21838;BME280;11081;45.946;6.140;2023-02-10T04:36:18;96865.22;;;0.59;68.79
21838;BME280;11081;45.946;6.140;2023-02-10T04:38:46;96870.16;;;0.63;68.54
21838;BME280;11081;45.946;6.140;2023-02-10T04:41:14;96863.16;;;0.65;68.28
21838;BME280;11081;45.946;6.140;2023-02-10T04:43:42;96859.88;;;0.63;68.00
21838;BME280;11081;45.946;6.140;2023-02-10T04:46:11;96864.06;;;0.52;68.95
21838;BME280;11081;45.946;6.140;2023-02-10T04:48:39;96868.72;;;0.47;68.82
21838;BME280;11081;45.946;6.140;2023-02-10T04:51:08;96871.53;;;0.44;68.96
21838;BME280;11081;45.946;6.140;2023-02-10T04:53:37;96868.03;;;0.45;68.29
21838;BME280;11081;45.946;6.140;2023-02-10T04:56:06;96871.03;;;0.39;68.26
21838;BME280;11081;45.946;6.140;2023-02-10T04:58:35;96874.28;;;0.19;69.17
21838;BME280;11081;45.946;6.140;2023-02-10T05:01:03;96876.00;;;0.07;69.47
21838;BME280;11081;45.946;6.140;2023-02-10T05:03:32;96870.06;;;0.18;69.39
21838;BME280;11081;45.946;6.140;2023-02-10T05:06:06;96879.66;;;0.27;68.32
21838;BME280;11081;45.946;6.140;2023-02-10T05:08:35;96870.81;;;0.31;68.77
21838;BME280;11081;45.946;6.140;2023-02-10T05:11:08;96863.81;;;0.33;68.94
21838;BME280;11081;45.946;6.140;2023-02-10T05:13:36;96868.94;;;0.33;68.27
21838;BME280;11081;45.946;6.140;2023-02-10T05:16:05;96880.84;;;0.34;68.56
21838;BME280;11081;45.946;6.140;2023-02-10T05:18:35;96870.56;;;0.34;68.17
21838;BME280;11081;45.946;6.140;2023-02-10T05:21:03;96867.53;;;0.29;68.64
21838;BME280;11081;45.946;6.140;2023-02-10T05:23:31;96874.31;;;0.30;68.81
21838;BME280;11081;45.946;6.140;2023-02-10T05:25:59;96866.50;;;0.32;68.18
21838;BME280;11081;45.946;6.140;2023-02-10T05:28:28;96877.56;;;0.32;68.43
21838;BME280;11081;45.946;6.140;2023-02-10T05:30:56;96872.44;;;0.32;68.42
21838;BME280;11081;45.946;6.140;2023-02-10T05:33:24;96881.91;;;0.32;67.94
21838;BME280;11081;45.946;6.140;2023-02-10T05:35:53;96870.81;;;0.31;68.15
21838;BME280;11081;45.946;6.140;2023-02-10T05:38:21;96876.75;;;0.32;67.76
21838;BME280;11081;45.946;6.140;2023-02-10T05:40:49;96879.78;;;0.37;68.48
21838;BME280;11081;45.946;6.140;2023-02-10T05:43:17;96888.06;;;0.29;67.80
21838;BME280;11081;45.946;6.140;2023-02-10T05:45:45;96887.84;;;0.32;68.33
21838;BME280;11081;45.946;6.140;2023-02-10T05:48:14;96885.75;;;0.37;67.98
21838;BME280;11081;45.946;6.140;2023-02-10T05:50:42;96886.69;;;0.36;67.81
21838;BME280;11081;45.946;6.140;2023-02-10T05:53:14;96883.75;;;0.29;67.83
21838;BME280;11081;45.946;6.140;2023-02-10T05:55:42;96889.47;;;0.33;67.66
21838;BME280;11081;45.946;6.140;2023-02-10T05:58:10;96887.25;;;0.28;67.37
21838;BME280;11081;45.946;6.140;2023-02-10T06:00:38;96894.25;;;0.26;67.87
21838;BME280;11081;45.946;6.140;2023-02-10T06:03:06;96895.31;;;0.24;67.88
21838;BME280;11081;45.946;6.140;2023-02-10T06:05:35;96890.41;;;0.21;67.89
21838;BME280;11081;45.946;6.140;2023-02-10T06:08:03;96898.31;;;0.18;67.78
21838;BME280;11081;45.946;6.140;2023-02-10T06:10:33;96895.03;;;0.16;67.73
21838;BME280;11081;45.946;6.140;2023-02-10T06:13:01;96894.34;;;0.14;67.93
21838;BME280;11081;45.946;6.140;2023-02-10T06:15:29;96888.16;;;0.16;67.70
21838;BME280;11081;45.946;6.140;2023-02-10T06:17:57;96898.66;;;0.13;67.44
21838;BME280;11081;45.946;6.140;2023-02-10T06:20:25;96892.94;;;0.10;67.36
21838;BME280;11081;45.946;6.140;2023-02-10T06:22:53;96902.97;;;0.13;67.25
21838;BME280;11081;45.946;6.140;2023-02-10T06:25:21;96902.03;;;0.14;67.62
21838;BME280;11081;45.946;6.140;2023-02-10T06:27:50;96903.19;;;0.10;67.33
21838;BME280;11081;45.946;6.140;2023-02-10T06:30:19;96914.16;;;0.12;67.68
21838;BME280;11081;45.946;6.140;2023-02-10T06:32:47;96907.28;;;0.12;67.13
21838;BME280;11081;45.946;6.140;2023-02-10T06:35:15;96916.72;;;0.12;67.61
21838;BME280;11081;45.946;6.140;2023-02-10T06:37:43;96917.78;;;0.09;67.87
21838;BME280;11081;45.946;6.140;2023-02-10T06:40:11;96922.09;;;0.09;67.73
21838;BME280;11081;45.946;6.140;2023-02-10T06:42:40;96923.72;;;0.10;67.86
21838;BME280;11081;45.946;6.140;2023-02-10T06:45:10;96918.22;;;0.03;67.62
21838;BME280;11081;45.946;6.140;2023-02-10T06:47:38;96908.06;;;0.02;67.88
21838;BME280;11081;45.946;6.140;2023-02-10T06:50:06;96912.28;;;0.03;67.80
21838;BME280;11081;45.946;6.140;2023-02-10T06:52:35;96909.91;;;-0.01;67.68
21838;BME280;11081;45.946;6.140;2023-02-10T06:55:05;96920.28;;;-0.02;67.63
21838;BME280;11081;45.946;6.140;2023-02-10T06:57:34;96915.53;;;0.05;67.10
21838;BME280;11081;45.946;6.140;2023-02-10T07:00:03;96915.53;;;0.05;67.21
21838;BME280;11081;45.946;6.140;2023-02-10T07:02:33;96927.66;;;0.03;66.99
21838;BME280;11081;45.946;6.140;2023-02-10T07:05:01;96935.03;;;0.07;67.28
21838;BME280;11081;45.946;6.140;2023-02-10T07:07:32;96940.00;;;-0.03;67.55
21838;BME280;11081;45.946;6.140;2023-02-10T07:10:00;96937.22;;;0.01;67.35
21838;BME280;11081;45.946;6.140;2023-02-10T07:12:28;96937.22;;;0.01;67.43
21838;BME280;11081;45.946;6.140;2023-02-10T07:14:56;96944.69;;;0.04;67.47
21838;BME280;11081;45.946;6.140;2023-02-10T07:17:24;96942.84;;;0.06;67.43
21838;BME280;11081;45.946;6.140;2023-02-10T07:19:54;96943.06;;;0.03;66.95
21838;BME280;11081;45.946;6.140;2023-02-10T07:22:22;96937.72;;;0.06;66.97
21838;BME280;11081;45.946;6.140;2023-02-10T07:24:50;96936.06;;;0.05;67.24
21838;BME280;11081;45.946;6.140;2023-02-10T07:27:18;96944.84;;;0.13;66.89
21838;BME280;11081;45.946;6.140;2023-02-10T07:29:46;96940.06;;;0.20;67.16
21838;BME280;11081;45.946;6.140;2023-02-10T07:32:15;96944.78;;;0.26;66.78
21838;BME280;11081;45.946;6.140;2023-02-10T07:34:43;96940.16;;;0.42;66.67
21838;BME280;11081;45.946;6.140;2023-02-10T07:37:14;96937.38;;;0.56;66.25
21838;BME280;11081;45.946;6.140;2023-02-10T07:39:42;96942.06;;;0.63;66.00
21838;BME280;11081;45.946;6.140;2023-02-10T07:42:10;96942.53;;;0.68;66.17
21838;BME280;11081;45.946;6.140;2023-02-10T07:44:58;96948.03;;;0.74;65.78
21838;BME280;11081;45.946;6.140;2023-02-10T07:47:26;96940.47;;;0.84;65.45
21838;BME280;11081;45.946;6.140;2023-02-10T07:49:54;96938.78;;;0.83;65.40
21838;BME280;11081;45.946;6.140;2023-02-10T07:52:24;96946.31;;;0.86;65.71
21838;BME280;11081;45.946;6.140;2023-02-10T07:54:52;96944.31;;;0.89;65.48
21838;BME280;11081;45.946;6.140;2023-02-10T07:57:20;96948.16;;;0.95;65.43
21838;BME280;11081;45.946;6.140;2023-02-10T07:59:48;96946.53;;;0.94;66.36
21838;BME280;11081;45.946;6.140;2023-02-10T08:02:16;96943.25;;;0.92;66.31
21838;BME280;11081;45.946;6.140;2023-02-10T08:04:44;96946.28;;;0.97;65.79
21838;BME280;11081;45.946;6.140;2023-02-10T08:07:12;96953.06;;;0.98;66.13
21838;BME280;11081;45.946;6.140;2023-02-10T08:09:41;96953.06;;;0.98;65.80
21838;BME280;11081;45.946;6.140;2023-02-10T08:12:09;96957.03;;;0.91;65.75
21838;BME280;11081;45.946;6.140;2023-02-10T08:14:37;96950.28;;;0.90;66.19
21838;BME280;11081;45.946;6.140;2023-02-10T08:17:05;96950.97;;;0.92;65.61
21838;BME280;11081;45.946;6.140;2023-02-10T08:19:34;96946.53;;;0.94;65.92
21838;BME280;11081;45.946;6.140;2023-02-10T08:22:03;96948.50;;;1.02;65.59
21838;BME280;11081;45.946;6.140;2023-02-10T08:24:31;96967.91;;;1.17;65.22
21838;BME280;11081;45.946;6.140;2023-02-10T08:27:00;96961.25;;;1.26;66.00
21838;BME280;11081;45.946;6.140;2023-02-10T08:29:28;96957.75;;;1.27;65.67
21838;BME280;11081;45.946;6.140;2023-02-10T08:31:56;96954.81;;;1.31;65.83
21838;BME280;11081;45.946;6.140;2023-02-10T08:34:24;96965.78;;;1.44;65.45
21838;BME280;11081;45.946;6.140;2023-02-10T08:36:53;96972.94;;;1.52;65.01
21838;BME280;11081;45.946;6.140;2023-02-10T08:39:21;96961.34;;;1.58;64.60
21838;BME280;11081;45.946;6.140;2023-02-10T08:41:49;96966.81;;;1.64;65.15
21838;BME280;11081;45.946;6.140;2023-02-10T08:44:18;96962.72;;;1.73;65.07
21838;BME280;11081;45.946;6.140;2023-02-10T08:46:46;96964.22;;;1.75;64.86
21838;BME280;11081;45.946;6.140;2023-02-10T08:49:14;96967.00;;;1.83;65.05
21838;BME280;11081;45.946;6.140;2023-02-10T08:51:42;96963.84;;;1.91;64.08
21838;BME280;11081;45.946;6.140;2023-02-10T08:54:10;96964.91;;;1.89;64.49
21838;BME280;11081;45.946;6.140;2023-02-10T08:56:38;96961.13;;;1.93;64.71
21838;BME280;11081;45.946;6.140;2023-02-10T08:59:06;96966.28;;;1.93;64.20
21838;BME280;11081;45.946;6.140;2023-02-10T09:01:36;96959.00;;;1.98;63.39
21838;BME280;11081;45.946;6.140;2023-02-10T09:04:04;96971.50;;;2.02;63.76
21838;BME280;11081;45.946;6.140;2023-02-10T09:06:34;96964.34;;;2.06;63.62
21838;BME280;11081;45.946;6.140;2023-02-10T09:09:06;96963.75;;;2.13;63.71
21838;BME280;11081;45.946;6.140;2023-02-10T09:11:34;96963.38;;;2.18;63.30
21838;BME280;11081;45.946;6.140;2023-02-10T09:14:02;96964.06;;;2.20;62.93
21838;BME280;11081;45.946;6.140;2023-02-10T09:16:30;96961.13;;;2.25;62.38
21838;BME280;11081;45.946;6.140;2023-02-10T09:19:00;96956.78;;;2.25;62.34
21838;BME280;11081;45.946;6.140;2023-02-10T09:21:29;96956.50;;;2.39;62.43
21838;BME280;11081;45.946;6.140;2023-02-10T09:24:12;96953.88;;;2.51;62.21
21838;BME280;11081;45.946;6.140;2023-02-10T09:26:40;96952.41;;;2.58;61.70
21838;BME280;11081;45.946;6.140;2023-02-10T09:29:08;96955.50;;;2.52;62.52
21838;BME280;11081;45.946;6.140;2023-02-10T09:31:37;96958.81;;;2.42;63.13
21838;BME280;11081;45.946;6.140;2023-02-10T09:34:06;96955.88;;;2.47;63.00
21838;BME280;11081;45.946;6.140;2023-02-10T09:36:34;96959.72;;;2.53;62.51
21838;BME280;11081;45.946;6.140;2023-02-10T09:39:02;96953.75;;;2.52;62.87
21838;BME280;11081;45.946;6.140;2023-02-10T09:41:40;96965.34;;;2.47;62.42
21838;BME280;11081;45.946;6.140;2023-02-10T09:44:15;96971.97;;;2.39;63.38
21838;BME280;11081;45.946;6.140;2023-02-10T09:46:52;96966.56;;;2.42;63.34
21838;BME280;11081;45.946;6.140;2023-02-10T09:49:52;96970.50;;;2.47;62.20
21838;BME280;11081;45.946;6.140;2023-02-10T09:52:29;96973.47;;;2.42;62.60
21838;BME280;11081;45.946;6.140;2023-02-10T09:55:00;96976.25;;;2.50;62.79
21838;BME280;11081;45.946;6.140;2023-02-10T09:57:39;96973.59;;;2.82;61.86
21838;BME280;11081;45.946;6.140;2023-02-10T10:00:20;96977.91;;;3.02;61.57
21838;BME280;11081;45.946;6.140;2023-02-10T10:02:53;96973.38;;;3.16;61.35
21838;BME280;11081;45.946;6.140;2023-02-10T10:05:33;96980.16;;;3.17;60.94
21838;BME280;11081;45.946;6.140;2023-02-10T10:08:11;96984.78;;;3.23;60.61
21838;BME280;11081;45.946;6.140;2023-02-10T10:10:44;96980.72;;;3.20;61.04
21838;BME280;11081;45.946;6.140;2023-02-10T10:13:16;96981.28;;;3.24;60.79
21838;BME280;11081;45.946;6.140;2023-02-10T10:16:03;96981.81;;;3.27;60.47
21838;BME280;11081;45.946;6.140;2023-02-10T10:18:44;96981.28;;;3.24;60.74
21838;BME280;11081;45.946;6.140;2023-02-10T10:21:23;96977.59;;;3.17;60.37
21838;BME280;11081;45.946;6.140;2023-02-10T10:24:04;96982.47;;;3.20;60.62
21838;BME280;11081;45.946;6.140;2023-02-10T11:05:12;96969.53;;;4.00;58.87
21838;BME280;11081;45.946;6.140;2023-02-10T11:07:41;96964.63;;;4.07;59.46
21838;BME280;11081;45.946;6.140;2023-02-10T11:10:20;96957.84;;;4.15;59.30
21838;BME280;11081;45.946;6.140;2023-02-10T11:12:49;96959.47;;;4.07;59.87
21838;BME280;11081;45.946;6.140;2023-02-10T11:15:37;96949.69;;;4.10;59.97
21838;BME280;11081;45.946;6.140;2023-02-10T11:18:07;96952.16;;;4.21;60.56
21838;BME280;11081;45.946;6.140;2023-02-10T11:20:52;96957.31;;;4.41;60.27
21838;BME280;11081;45.946;6.140;2023-02-10T11:23:20;96946.94;;;4.60;60.47
21838;BME280;11081;45.946;6.140;2023-02-10T11:25:56;96944.75;;;4.65;58.57
21838;BME280;11081;45.946;6.140;2023-02-10T11:28:26;96938.50;;;4.58;58.90
21838;BME280;11081;45.946;6.140;2023-02-10T11:30:57;96943.13;;;4.64;59.35
21838;BME280;11081;45.946;6.140;2023-02-10T11:33:29;96935.78;;;4.50;58.86
21838;BME280;11081;45.946;6.140;2023-02-10T11:36:02;96932.78;;;4.64;60.11
21838;BME280;11081;45.946;6.140;2023-02-10T11:38:31;96926.22;;;4.79;59.13
21838;BME280;11081;45.946;6.140;2023-02-10T11:41:01;96933.03;;;4.80;59.07
21838;BME280;11081;45.946;6.140;2023-02-10T11:43:35;96929.69;;;4.98;59.62
21838;BME280;11081;45.946;6.140;2023-02-10T11:46:05;96928.34;;;5.03;58.53
21838;BME280;11081;45.946;6.140;2023-02-10T11:48:36;96926.44;;;4.96;58.02
21838;BME280;11081;45.946;6.140;2023-02-10T11:51:14;96925.88;;;5.02;59.32
21838;BME280;11081;45.946;6.140;2023-02-10T11:53:44;96921.53;;;5.02;59.02
21838;BME280;11081;45.946;6.140;2023-02-10T11:56:16;96919.63;;;4.95;58.59
21838;BME280;11081;45.946;6.140;2023-02-10T11:59:05;96915.28;;;4.95;59.30
21838;BME280;11081;45.946;6.140;2023-02-10T12:01:49;96920.94;;;5.08;58.40
21838;BME280;11081;45.946;6.140;2023-02-10T12:07:20;96917.44;;;5.00;58.61
21838;BME280;11081;45.946;6.140;2023-02-10T12:09:55;96923.59;;;5.26;59.95
21838;BME280;11081;45.946;6.140;2023-02-10T12:12:31;96913.09;;;5.55;58.88
21838;BME280;11081;45.946;6.140;2023-02-10T12:15:11;96915.25;;;5.60;57.85
21838;BME280;11081;45.946;6.140;2023-02-10T12:17:48;96916.59;;;5.64;57.17
21838;BME280;11081;45.946;6.140;2023-02-10T12:20:31;96903.53;;;5.56;56.18
21838;BME280;11081;45.946;6.140;2023-02-10T12:23:15;96908.50;;;5.49;56.45
21838;BME280;11081;45.946;6.140;2023-02-10T12:25:52;96905.94;;;5.67;56.72
21838;BME280;11081;45.946;6.140;2023-02-10T12:28:35;96905.34;;;5.73;56.15
21838;BME280;11081;45.946;6.140;2023-02-10T12:31:11;96910.25;;;5.76;56.15
21838;BME280;11081;45.946;6.140;2023-02-10T12:33:53;96917.16;;;5.58;55.67
21838;BME280;11081;45.946;6.140;2023-02-10T12:36:33;96910.53;;;5.73;55.08
21838;BME280;11081;45.946;6.140;2023-02-10T12:39:13;96917.28;;;5.66;55.40
21838;BME280;11081;45.946;6.140;2023-02-10T12:41:47;96911.78;;;5.69;56.21
21838;BME280;11081;45.946;6.140;2023-02-10T12:44:31;96915.41;;;5.76;54.84
21838;BME280;11081;45.946;6.140;2023-02-10T12:47:12;96919.78;;;5.75;55.14
21838;BME280;11081;45.946;6.140;2023-02-10T12:49:52;96916.31;;;5.67;55.90
21838;BME280;11081;45.946;6.140;2023-02-10T12:52:29;96905.66;;;5.70;55.24
21838;BME280;11081;45.946;6.140;2023-02-10T12:55:04;96906.13;;;5.83;56.30
21838;BME280;11081;45.946;6.140;2023-02-10T12:57:43;96908.13;;;5.89;54.58
21838;BME280;11081;45.946;6.140;2023-02-10T13:00:16;96903.69;;;5.99;55.01
21838;BME280;11081;45.946;6.140;2023-02-10T13:02:50;96904.28;;;6.11;54.52
21838;BME280;11081;45.946;6.140;2023-02-10T13:05:23;96905.09;;;6.11;54.44
21838;BME280;11081;45.946;6.140;2023-02-10T13:07:54;96909.28;;;6.04;54.16
21838;BME280;11081;45.946;6.140;2023-02-10T13:10:32;96905.63;;;5.97;53.81
21838;BME280;11081;45.946;6.140;2023-02-10T13:13:05;96900.09;;;5.82;56.31
21838;BME280;11081;45.946;6.140;2023-02-10T13:15:37;96906.53;;;6.06;55.49
21838;BME280;11081;45.946;6.140;2023-02-10T13:18:17;96897.69;;;6.17;55.54
21838;BME280;11081;45.946;6.140;2023-02-10T13:20:52;96902.72;;;6.36;54.57
21838;BME280;11081;45.946;6.140;2023-02-10T13:23:29;96901.28;;;6.41;54.06
21838;BME280;11081;45.946;6.140;2023-02-10T13:29:08;96906.13;;;6.62;53.02
21838;BME280;11081;45.946;6.140;2023-02-10T13:31:56;96897.47;;;6.71;53.26
21838;BME280;11081;45.946;6.140;2023-02-10T13:34:28;96902.38;;;6.83;54.17
21838;BME280;11081;45.946;6.140;2023-02-10T13:37:10;96900.81;;;6.90;53.17
21838;BME280;11081;45.946;6.140;2023-02-10T13:39:49;96897.09;;;6.66;53.56
21838;BME280;11081;45.946;6.140;2023-02-10T13:42:23;96896.72;;;6.61;52.79
21838;BME280;11081;45.946;6.140;2023-02-10T13:45:03;96902.22;;;6.58;52.14
21838;BME280;11081;45.946;6.140;2023-02-10T13:47:36;96898.47;;;6.79;52.94
21838;BME280;11081;45.946;6.140;2023-02-10T13:50:15;96898.56;;;6.95;53.15
21838;BME280;11081;45.946;6.140;2023-02-10T13:52:51;96898.34;;;7.14;51.33
21838;BME280;11081;45.946;6.140;2023-02-10T13:55:42;96898.75;;;7.01;49.23
21838;BME280;11081;45.946;6.140;2023-02-10T13:58:33;96901.28;;;7.19;49.43
21838;BME280;11081;45.946;6.140;2023-02-10T14:01:27;96896.47;;;7.32;49.77
21838;BME280;11081;45.946;6.140;2023-02-10T14:03:54;96914.34;;;7.44;49.58
21838;BME280;11081;45.946;6.140;2023-02-10T14:06:32;96909.16;;;7.44;48.95
21838;BME280;11081;45.946;6.140;2023-02-10T14:09:06;96905.56;;;7.37;49.20
21838;BME280;11081;45.946;6.140;2023-02-10T14:11:45;96904.88;;;7.26;49.58
21838;BME280;11081;45.946;6.140;2023-02-10T14:14:21;96896.94;;;6.94;49.53
21838;BME280;11081;45.946;6.140;2023-02-10T14:17:03;96902.22;;;7.10;48.99
21838;BME280;11081;45.946;6.140;2023-02-10T14:19:32;96901.97;;;7.29;49.15
21838;BME280;11081;45.946;6.140;2023-02-10T14:22:02;96902.34;;;7.43;49.15